Pagrindinis puslapis
METAR-TAF:

METAR-TAF

Oro uostai :

Erebru, Švedija

platuma: 59-14N, ilguma: 015-03E, Aukštis: 57 m

Dabartinis oras

Ataskaita buvo paskelbta 33 minutes, ne 19:20 UTC
Vėjas 4 kt iš Rytų
Temperatūra 24°C
Drėgmė 47%
Slėgis 1015 hPa
Matomumas 10 km arba daugiau

METAR: ESOE 171920Z AUTO 10004KT 9999 NCD 24/12 Q1015

Laikas: 21:53 (19:53 UTC)

Prognozė

Ataskaita buvo paskelbta 2 valandos ir 23 minutes, ne 17:30 UTC
Prognozė galioja nuo 17 metu 18 UTC su 17 metu 21 UTC
Vėjas 8 kt iš Pietų
Matomumas 10 km arba daugiau
nėra debesų žemiau 1500 m ir nėra kamuolinių lietaus debesų

TAF: ESOE 171730Z 1718/1721 17008KT CAVOK

Orai ataskaitas ir orų prognozės (METAR, TAF).

turimą stotys yra geltonos ir raudonos taškus žemėlapyje.

Perkelti pele per norėdami pamatyti stoties vardą.

Tada spustelėkite, norėdami matyti oro stebėjimo ir prognozės.

Norėdami pakeisti žemėlapį: spustelėkite ant žalios mygtukų su juodo kryžiaus žemyn,; žalią mygtuką su brūkšneliu, jei norite nutolinti; arba žalių rodyklių gretimoms žemėlapius.


METAR-TAF: